Dallas, Texas
Traffic Map
Current Weather Conditions
Dallas, Texas
Few Clouds
Few Clouds
89°
Feels Like: 94°
Wind Chill: 89° Ceiling: Unl
Heat Index: 94° Visibility: 10mi
Dew Point: 69° Wind: 16mph
Humidity: 52% Direction: 160° (SSE)
Pressure: 29.93in Gusts: 0mph
Raw Report DataKDAL 310453Z 16014KT 10SM FEW080 FEW300 32/21 A2993 RMK AO2 SLP127 T03170206 $
Traffic Incident Summary
Active as of:
Severity:
Category:
InformationThere was an issue retrieving the traffic information for this location. Please try a different location or try again shortly.
Advertisements
Track Severe Weather on mobile